sensor_id;sensor_type;location;lat;lon;timestamp;temperature;humidity
76537;DHT22;65381;51.254;15.592;2023-05-28T00:00:49;9.00;46.30
76537;DHT22;65381;51.254;15.592;2023-05-28T00:03:37;9.00;46.40
76537;DHT22;65381;51.254;15.592;2023-05-28T00:06:07;9.00;46.30
76537;DHT22;65381;51.254;15.592;2023-05-28T00:08:34;8.90;46.40
76537;DHT22;65381;51.254;15.592;2023-05-28T00:11:02;8.90;46.50
76537;DHT22;65381;51.254;15.592;2023-05-28T00:13:31;8.90;46.50
76537;DHT22;65381;51.254;15.592;2023-05-28T00:15:59;8.90;46.50
76537;DHT22;65381;51.254;15.592;2023-05-28T00:18:27;8.90;46.60
76537;DHT22;65381;51.254;15.592;2023-05-28T00:20:56;8.80;46.60
76537;DHT22;65381;51.254;15.592;2023-05-28T00:23:23;8.80;46.60
76537;DHT22;65381;51.254;15.592;2023-05-28T00:25:52;8.80;46.70
76537;DHT22;65381;51.254;15.592;2023-05-28T00:28:20;8.80;46.90
76537;DHT22;65381;51.254;15.592;2023-05-28T00:30:48;8.80;46.90
76537;DHT22;65381;51.254;15.592;2023-05-28T00:33:15;8.80;46.90
76537;DHT22;65381;51.254;15.592;2023-05-28T00:35:43;8.80;46.90
76537;DHT22;65381;51.254;15.592;2023-05-28T00:38:11;8.70;47.00
76537;DHT22;65381;51.254;15.592;2023-05-28T00:40:43;8.60;47.00
76537;DHT22;65381;51.254;15.592;2023-05-28T00:43:12;8.60;47.10
76537;DHT22;65381;51.254;15.592;2023-05-28T00:45:40;8.60;47.20
76537;DHT22;65381;51.254;15.592;2023-05-28T00:48:08;8.50;47.20
76537;DHT22;65381;51.254;15.592;2023-05-28T00:50:37;8.50;47.20
76537;DHT22;65381;51.254;15.592;2023-05-28T00:53:06;8.40;47.20
76537;DHT22;65381;51.254;15.592;2023-05-28T00:55:35;8.40;47.30
76537;DHT22;65381;51.254;15.592;2023-05-28T00:58:03;8.40;47.30
76537;DHT22;65381;51.254;15.592;2023-05-28T01:00:35;8.40;47.30
76537;DHT22;65381;51.254;15.592;2023-05-28T01:03:04;8.30;47.40
76537;DHT22;65381;51.254;15.592;2023-05-28T01:05:33;8.30;47.50
76537;DHT22;65381;51.254;15.592;2023-05-28T01:08:02;8.30;47.50
76537;DHT22;65381;51.254;15.592;2023-05-28T01:10:32;8.30;47.50
76537;DHT22;65381;51.254;15.592;2023-05-28T01:13:01;8.20;47.50
76537;DHT22;65381;51.254;15.592;2023-05-28T01:15:30;8.20;47.50
76537;DHT22;65381;51.254;15.592;2023-05-28T01:17:59;8.20;47.50
76537;DHT22;65381;51.254;15.592;2023-05-28T01:20:30;8.20;47.60
76537;DHT22;65381;51.254;15.592;2023-05-28T01:23:12;8.20;47.60
76537;DHT22;65381;51.254;15.592;2023-05-28T01:25:45;8.10;47.70
76537;DHT22;65381;51.254;15.592;2023-05-28T01:28:14;8.10;47.60
76537;DHT22;65381;51.254;15.592;2023-05-28T01:30:43;8.10;47.60
76537;DHT22;65381;51.254;15.592;2023-05-28T01:33:11;8.10;47.70
76537;DHT22;65381;51.254;15.592;2023-05-28T01:35:42;8.10;47.70
76537;DHT22;65381;51.254;15.592;2023-05-28T01:38:12;8.10;47.70
76537;DHT22;65381;51.254;15.592;2023-05-28T01:40:44;8.10;47.80
76537;DHT22;65381;51.254;15.592;2023-05-28T01:43:13;8.00;47.90
76537;DHT22;65381;51.254;15.592;2023-05-28T01:45:42;8.00;47.90
76537;DHT22;65381;51.254;15.592;2023-05-28T01:48:10;8.00;48.00
76537;DHT22;65381;51.254;15.592;2023-05-28T01:50:38;8.00;48.00
76537;DHT22;65381;51.254;15.592;2023-05-28T01:53:06;8.00;48.00
76537;DHT22;65381;51.254;15.592;2023-05-28T01:55:34;8.00;48.00
76537;DHT22;65381;51.254;15.592;2023-05-28T01:58:03;7.90;48.10
76537;DHT22;65381;51.254;15.592;2023-05-28T02:00:32;7.90;48.10
76537;DHT22;65381;51.254;15.592;2023-05-28T02:03:01;7.80;48.20
76537;DHT22;65381;51.254;15.592;2023-05-28T02:05:29;7.80;48.20
76537;DHT22;65381;51.254;15.592;2023-05-28T02:07:57;7.80;48.30
76537;DHT22;65381;51.254;15.592;2023-05-28T02:10:28;7.80;48.30
76537;DHT22;65381;51.254;15.592;2023-05-28T02:12:56;7.70;48.30
76537;DHT22;65381;51.254;15.592;2023-05-28T02:15:24;7.60;48.40
76537;DHT22;65381;51.254;15.592;2023-05-28T02:17:52;7.60;48.40
76537;DHT22;65381;51.254;15.592;2023-05-28T02:20:20;7.60;48.50
76537;DHT22;65381;51.254;15.592;2023-05-28T02:22:48;7.50;48.50
76537;DHT22;65381;51.254;15.592;2023-05-28T02:25:18;7.50;48.60
76537;DHT22;65381;51.254;15.592;2023-05-28T02:27:46;7.50;48.60
76537;DHT22;65381;51.254;15.592;2023-05-28T02:30:14;7.50;48.70
76537;DHT22;65381;51.254;15.592;2023-05-28T02:32:41;7.60;48.70
76537;DHT22;65381;51.254;15.592;2023-05-28T02:35:09;7.60;48.80
76537;DHT22;65381;51.254;15.592;2023-05-28T02:37:38;7.50;48.80
76537;DHT22;65381;51.254;15.592;2023-05-28T02:40:06;7.50;48.80
76537;DHT22;65381;51.254;15.592;2023-05-28T02:42:37;7.50;48.80
76537;DHT22;65381;51.254;15.592;2023-05-28T02:45:05;7.40;48.90
76537;DHT22;65381;51.254;15.592;2023-05-28T02:47:33;7.40;49.00
76537;DHT22;65381;51.254;15.592;2023-05-28T02:50:02;7.30;49.00
76537;DHT22;65381;51.254;15.592;2023-05-28T02:52:40;7.30;49.00
76537;DHT22;65381;51.254;15.592;2023-05-28T02:55:09;7.20;49.00
76537;DHT22;65381;51.254;15.592;2023-05-28T02:57:36;7.20;49.10
76537;DHT22;65381;51.254;15.592;2023-05-28T03:00:06;7.00;49.20
76537;DHT22;65381;51.254;15.592;2023-05-28T03:02:38;7.00;49.20
76537;DHT22;65381;51.254;15.592;2023-05-28T03:05:06;7.00;49.30
76537;DHT22;65381;51.254;15.592;2023-05-28T03:07:35;7.00;49.30
76537;DHT22;65381;51.254;15.592;2023-05-28T03:10:04;7.00;49.30
76537;DHT22;65381;51.254;15.592;2023-05-28T03:12:34;7.00;49.40
76537;DHT22;65381;51.254;15.592;2023-05-28T03:15:02;7.10;49.40
76537;DHT22;65381;51.254;15.592;2023-05-28T03:17:31;7.20;49.40
76537;DHT22;65381;51.254;15.592;2023-05-28T03:19:59;7.20;49.50
76537;DHT22;65381;51.254;15.592;2023-05-28T03:22:27;7.30;49.50
76537;DHT22;65381;51.254;15.592;2023-05-28T03:24:55;7.40;49.50
76537;DHT22;65381;51.254;15.592;2023-05-28T03:27:25;7.50;49.50
76537;DHT22;65381;51.254;15.592;2023-05-28T03:29:53;7.50;49.50
76537;DHT22;65381;51.254;15.592;2023-05-28T03:32:25;7.70;49.50
76537;DHT22;65381;51.254;15.592;2023-05-28T03:34:53;7.80;49.50
76537;DHT22;65381;51.254;15.592;2023-05-28T03:37:26;8.00;49.50
76537;DHT22;65381;51.254;15.592;2023-05-28T03:39:54;8.00;49.60
76537;DHT22;65381;51.254;15.592;2023-05-28T03:42:22;8.20;49.70
76537;DHT22;65381;51.254;15.592;2023-05-28T03:44:50;8.40;49.80
76537;DHT22;65381;51.254;15.592;2023-05-28T03:47:18;8.60;49.90
76537;DHT22;65381;51.254;15.592;2023-05-28T03:49:46;8.80;50.00
76537;DHT22;65381;51.254;15.592;2023-05-28T03:52:13;9.00;50.00
76537;DHT22;65381;51.254;15.592;2023-05-28T03:54:48;9.20;50.00
76537;DHT22;65381;51.254;15.592;2023-05-28T03:57:16;9.40;50.00
76537;DHT22;65381;51.254;15.592;2023-05-28T03:59:44;9.60;50.00
76537;DHT22;65381;51.254;15.592;2023-05-28T04:02:12;9.90;49.90
76537;DHT22;65381;51.254;15.592;2023-05-28T04:04:40;10.10;50.00
76537;DHT22;65381;51.254;15.592;2023-05-28T04:07:08;10.30;50.10
76537;DHT22;65381;51.254;15.592;2023-05-28T04:09:38;10.60;50.10
76537;DHT22;65381;51.254;15.592;2023-05-28T04:12:06;11.00;50.10
76537;DHT22;65381;51.254;15.592;2023-05-28T04:14:34;11.40;50.00
76537;DHT22;65381;51.254;15.592;2023-05-28T04:17:02;11.80;50.00
76537;DHT22;65381;51.254;15.592;2023-05-28T04:19:32;12.20;49.80
76537;DHT22;65381;51.254;15.592;2023-05-28T04:22:00;12.50;49.80
76537;DHT22;65381;51.254;15.592;2023-05-28T04:24:28;12.90;49.70
76537;DHT22;65381;51.254;15.592;2023-05-28T04:26:56;13.30;49.70
76537;DHT22;65381;51.254;15.592;2023-05-28T04:29:25;13.60;49.60
76537;DHT22;65381;51.254;15.592;2023-05-28T04:31:57;14.00;49.50
76537;DHT22;65381;51.254;15.592;2023-05-28T04:34:25;14.40;49.40
76537;DHT22;65381;51.254;15.592;2023-05-28T04:36:53;14.70;49.30
76537;DHT22;65381;51.254;15.592;2023-05-28T04:39:24;15.00;49.30
76537;DHT22;65381;51.254;15.592;2023-05-28T04:41:52;15.30;49.30
76537;DHT22;65381;51.254;15.592;2023-05-28T04:44:21;15.80;49.10
76537;DHT22;65381;51.254;15.592;2023-05-28T04:46:54;16.20;48.90
76537;DHT22;65381;51.254;15.592;2023-05-28T04:49:23;16.60;48.70
76537;DHT22;65381;51.254;15.592;2023-05-28T04:51:51;16.90;48.50
76537;DHT22;65381;51.254;15.592;2023-05-28T04:54:19;17.20;48.40
76537;DHT22;65381;51.254;15.592;2023-05-28T04:56:48;17.50;48.30
76537;DHT22;65381;51.254;15.592;2023-05-28T04:59:15;17.80;48.20
76537;DHT22;65381;51.254;15.592;2023-05-28T05:01:43;18.10;48.00
76537;DHT22;65381;51.254;15.592;2023-05-28T05:04:12;18.40;47.90
76537;DHT22;65381;51.254;15.592;2023-05-28T05:06:41;18.80;47.80
76537;DHT22;65381;51.254;15.592;2023-05-28T05:09:08;19.20;47.60
76537;DHT22;65381;51.254;15.592;2023-05-28T05:11:37;19.60;47.40
76537;DHT22;65381;51.254;15.592;2023-05-28T05:14:05;20.00;47.20
76537;DHT22;65381;51.254;15.592;2023-05-28T05:16:34;20.30;47.00
76537;DHT22;65381;51.254;15.592;2023-05-28T05:19:02;20.50;46.90
76537;DHT22;65381;51.254;15.592;2023-05-28T05:21:32;20.50;46.90
76537;DHT22;65381;51.254;15.592;2023-05-28T05:23:59;20.80;46.80
76537;DHT22;65381;51.254;15.592;2023-05-28T05:26:27;21.00;46.70
76537;DHT22;65381;51.254;15.592;2023-05-28T05:28:55;21.20;46.60
76537;DHT22;65381;51.254;15.592;2023-05-28T05:31:23;21.60;46.40
76537;DHT22;65381;51.254;15.592;2023-05-28T05:33:51;22.00;46.20
76537;DHT22;65381;51.254;15.592;2023-05-28T05:36:34;22.60;45.90
76537;DHT22;65381;51.254;15.592;2023-05-28T05:39:21;22.80;45.30
76537;DHT22;65381;51.254;15.592;2023-05-28T05:42:06;22.60;45.00
76537;DHT22;65381;51.254;15.592;2023-05-28T05:44:41;22.50;45.30
76537;DHT22;65381;51.254;15.592;2023-05-28T05:47:09;22.60;45.20
76537;DHT22;65381;51.254;15.592;2023-05-28T05:49:38;22.80;44.70
76537;DHT22;65381;51.254;15.592;2023-05-28T05:52:07;23.20;44.40
76537;DHT22;65381;51.254;15.592;2023-05-28T05:54:38;24.00;43.90
76537;DHT22;65381;51.254;15.592;2023-05-28T05:57:09;24.80;42.80
76537;DHT22;65381;51.254;15.592;2023-05-28T05:59:38;25.00;42.50
76537;DHT22;65381;51.254;15.592;2023-05-28T06:02:06;25.00;42.20
76537;DHT22;65381;51.254;15.592;2023-05-28T06:04:35;25.20;42.20
76537;DHT22;65381;51.254;15.592;2023-05-28T06:07:20;25.50;42.10
76537;DHT22;65381;51.254;15.592;2023-05-28T06:10:08;25.80;41.50
76537;DHT22;65381;51.254;15.592;2023-05-28T06:12:38;25.80;41.40
76537;DHT22;65381;51.254;15.592;2023-05-28T06:15:07;26.00;41.50
76537;DHT22;65381;51.254;15.592;2023-05-28T06:17:36;26.40;41.30
76537;DHT22;65381;51.254;15.592;2023-05-28T06:20:04;26.70;41.20
76537;DHT22;65381;51.254;15.592;2023-05-28T06:22:32;27.10;41.10
76537;DHT22;65381;51.254;15.592;2023-05-28T06:25:00;27.80;40.90
76537;DHT22;65381;51.254;15.592;2023-05-28T06:27:29;28.10;40.50
76537;DHT22;65381;51.254;15.592;2023-05-28T06:29:56;28.30;40.20
76537;DHT22;65381;51.254;15.592;2023-05-28T06:32:24;28.40;40.00
76537;DHT22;65381;51.254;15.592;2023-05-28T06:34:52;28.80;40.00
76537;DHT22;65381;51.254;15.592;2023-05-28T06:37:20;29.30;39.70
76537;DHT22;65381;51.254;15.592;2023-05-28T06:39:48;29.70;39.40
76537;DHT22;65381;51.254;15.592;2023-05-28T06:42:17;30.00;39.30
76537;DHT22;65381;51.254;15.592;2023-05-28T06:45:01;30.30;38.90
76537;DHT22;65381;51.254;15.592;2023-05-28T06:47:30;30.50;38.70
76537;DHT22;65381;51.254;15.592;2023-05-28T06:49:58;30.70;38.60
76537;DHT22;65381;51.254;15.592;2023-05-28T06:52:26;31.10;38.20
76537;DHT22;65381;51.254;15.592;2023-05-28T06:54:55;31.10;38.10
76537;DHT22;65381;51.254;15.592;2023-05-28T06:57:24;31.50;37.90
76537;DHT22;65381;51.254;15.592;2023-05-28T07:00:25;32.10;37.40
76537;DHT22;65381;51.254;15.592;2023-05-28T07:03:05;32.50;37.10
76537;DHT22;65381;51.254;15.592;2023-05-28T07:05:56;32.50;37.00
76537;DHT22;65381;51.254;15.592;2023-05-28T07:08:24;32.30;36.60
76537;DHT22;65381;51.254;15.592;2023-05-28T07:10:53;32.20;36.60
76537;DHT22;65381;51.254;15.592;2023-05-28T07:13:21;32.30;36.40
76537;DHT22;65381;51.254;15.592;2023-05-28T07:15:49;32.40;35.80
76537;DHT22;65381;51.254;15.592;2023-05-28T07:18:18;32.20;35.70
76537;DHT22;65381;51.254;15.592;2023-05-28T07:20:46;32.20;35.70
76537;DHT22;65381;51.254;15.592;2023-05-28T07:23:23;32.50;35.40
76537;DHT22;65381;51.254;15.592;2023-05-28T07:25:52;32.60;35.20
76537;DHT22;65381;51.254;15.592;2023-05-28T07:28:21;32.80;35.10
76537;DHT22;65381;51.254;15.592;2023-05-28T07:30:48;33.10;34.80
76537;DHT22;65381;51.254;15.592;2023-05-28T07:33:16;33.40;34.50
76537;DHT22;65381;51.254;15.592;2023-05-28T07:35:45;33.50;34.30
76537;DHT22;65381;51.254;15.592;2023-05-28T07:38:14;33.60;34.00
76537;DHT22;65381;51.254;15.592;2023-05-28T07:40:45;33.40;33.90
76537;DHT22;65381;51.254;15.592;2023-05-28T07:43:31;33.10;33.50
76537;DHT22;65381;51.254;15.592;2023-05-28T07:46:04;32.80;33.60
76537;DHT22;65381;51.254;15.592;2023-05-28T07:48:42;32.70;33.40
76537;DHT22;65381;51.254;15.592;2023-05-28T07:51:19;32.80;33.40
76537;DHT22;65381;51.254;15.592;2023-05-28T07:53:59;32.80;33.20
76537;DHT22;65381;51.254;15.592;2023-05-28T07:56:27;32.80;32.80
76537;DHT22;65381;51.254;15.592;2023-05-28T07:58:56;32.60;32.60
76537;DHT22;65381;51.254;15.592;2023-05-28T08:01:24;32.30;32.60
76537;DHT22;65381;51.254;15.592;2023-05-28T08:03:52;32.40;32.30
76537;DHT22;65381;51.254;15.592;2023-05-28T08:06:28;32.20;32.50
76537;DHT22;65381;51.254;15.592;2023-05-28T08:08:58;32.40;32.50
76537;DHT22;65381;51.254;15.592;2023-05-28T08:11:26;32.50;31.90
76537;DHT22;65381;51.254;15.592;2023-05-28T08:13:54;32.20;31.60
76537;DHT22;65381;51.254;15.592;2023-05-28T08:16:23;31.90;31.70
76537;DHT22;65381;51.254;15.592;2023-05-28T08:19:10;31.70;31.90
76537;DHT22;65381;51.254;15.592;2023-05-28T08:21:39;31.90;31.30
76537;DHT22;65381;51.254;15.592;2023-05-28T08:24:08;31.80;31.40
76537;DHT22;65381;51.254;15.592;2023-05-28T08:26:39;32.00;31.20
76537;DHT22;65381;51.254;15.592;2023-05-28T08:29:08;32.20;31.10
76537;DHT22;65381;51.254;15.592;2023-05-28T08:31:40;32.40;31.00
76537;DHT22;65381;51.254;15.592;2023-05-28T08:34:20;32.80;30.50
76537;DHT22;65381;51.254;15.592;2023-05-28T08:36:47;32.70;30.60
76537;DHT22;65381;51.254;15.592;2023-05-28T08:39:22;33.00;30.60
76537;DHT22;65381;51.254;15.592;2023-05-28T08:41:51;33.30;30.30
76537;DHT22;65381;51.254;15.592;2023-05-28T08:44:20;33.50;29.70
76537;DHT22;65381;51.254;15.592;2023-05-28T08:46:48;33.00;29.80
76537;DHT22;65381;51.254;15.592;2023-05-28T08:49:51;32.90;30.00
76537;DHT22;65381;51.254;15.592;2023-05-28T08:52:34;33.00;29.20
76537;DHT22;65381;51.254;15.592;2023-05-28T08:55:05;32.20;29.30
76537;DHT22;65381;51.254;15.592;2023-05-28T08:57:40;32.00;29.30
76537;DHT22;65381;51.254;15.592;2023-05-28T09:00:09;32.20;29.40
76537;DHT22;65381;51.254;15.592;2023-05-28T09:03:11;32.30;28.40
76537;DHT22;65381;51.254;15.592;2023-05-28T09:05:40;31.90;28.70
76537;DHT22;65381;51.254;15.592;2023-05-28T09:08:10;31.70;28.70
76537;DHT22;65381;51.254;15.592;2023-05-28T09:10:39;31.70;28.70
76537;DHT22;65381;51.254;15.592;2023-05-28T09:13:09;31.40;28.60
76537;DHT22;65381;51.254;15.592;2023-05-28T09:15:37;31.10;28.40
76537;DHT22;65381;51.254;15.592;2023-05-28T09:18:08;30.80;28.00
76537;DHT22;65381;51.254;15.592;2023-05-28T09:20:36;30.70;28.10
76537;DHT22;65381;51.254;15.592;2023-05-28T09:23:05;30.60;28.10
76537;DHT22;65381;51.254;15.592;2023-05-28T09:25:54;30.60;28.00
76537;DHT22;65381;51.254;15.592;2023-05-28T09:28:29;30.60;28.10
76537;DHT22;65381;51.254;15.592;2023-05-28T09:31:04;30.70;27.90
76537;DHT22;65381;51.254;15.592;2023-05-28T09:33:35;30.80;27.90
76537;DHT22;65381;51.254;15.592;2023-05-28T09:36:03;30.80;27.70
76537;DHT22;65381;51.254;15.592;2023-05-28T09:38:41;30.70;27.70
76537;DHT22;65381;51.254;15.592;2023-05-28T09:41:25;30.80;27.70
76537;DHT22;65381;51.254;15.592;2023-05-28T09:43:59;30.90;27.70
76537;DHT22;65381;51.254;15.592;2023-05-28T09:46:34;31.60;27.80
76537;DHT22;65381;51.254;15.592;2023-05-28T09:49:03;32.80;27.30
76537;DHT22;65381;51.254;15.592;2023-05-28T09:51:32;33.30;27.20
76537;DHT22;65381;51.254;15.592;2023-05-28T09:54:02;33.70;27.20
76537;DHT22;65381;51.254;15.592;2023-05-28T09:56:32;34.00;27.20
76537;DHT22;65381;51.254;15.592;2023-05-28T09:59:06;34.20;27.20
76537;DHT22;65381;51.254;15.592;2023-05-28T10:02:36;34.50;27.10
76537;DHT22;65381;51.254;15.592;2023-05-28T10:04:37;34.40;26.70
76537;DHT22;65381;51.254;15.592;2023-05-28T10:07:08;33.80;27.10
76537;DHT22;65381;51.254;15.592;2023-05-28T10:09:39;34.20;27.10
76537;DHT22;65381;51.254;15.592;2023-05-28T10:12:18;34.40;26.60
76537;DHT22;65381;51.254;15.592;2023-05-28T10:14:49;33.80;26.60
76537;DHT22;65381;51.254;15.592;2023-05-28T10:17:18;33.50;26.70
76537;DHT22;65381;51.254;15.592;2023-05-28T10:19:47;33.60;26.90
76537;DHT22;65381;51.254;15.592;2023-05-28T10:22:16;34.00;26.70
76537;DHT22;65381;51.254;15.592;2023-05-28T10:24:44;33.80;26.20
76537;DHT22;65381;51.254;15.592;2023-05-28T10:27:15;33.20;26.60
76537;DHT22;65381;51.254;15.592;2023-05-28T10:29:44;33.30;26.70
76537;DHT22;65381;51.254;15.592;2023-05-28T10:32:16;33.40;26.60
76537;DHT22;65381;51.254;15.592;2023-05-28T10:34:44;33.50;26.60
76537;DHT22;65381;51.254;15.592;2023-05-28T10:37:22;33.90;26.50
76537;DHT22;65381;51.254;15.592;2023-05-28T10:39:50;33.80;26.50
76537;DHT22;65381;51.254;15.592;2023-05-28T10:42:19;34.00;26.70
76537;DHT22;65381;51.254;15.592;2023-05-28T10:45:07;35.00;26.40
76537;DHT22;65381;51.254;15.592;2023-05-28T10:47:51;35.10;25.80
76537;DHT22;65381;51.254;15.592;2023-05-28T10:50:20;34.30;25.90
76537;DHT22;65381;51.254;15.592;2023-05-28T10:53:08;34.00;26.30
76537;DHT22;65381;51.254;15.592;2023-05-28T10:55:51;34.00;26.30
76537;DHT22;65381;51.254;15.592;2023-05-28T10:58:28;34.00;26.00
76537;DHT22;65381;51.254;15.592;2023-05-28T11:03:40;33.60;26.20
76537;DHT22;65381;51.254;15.592;2023-05-28T11:06:10;33.50;26.10
76537;DHT22;65381;51.254;15.592;2023-05-28T11:08:48;33.20;26.20
76537;DHT22;65381;51.254;15.592;2023-05-28T11:11:18;33.20;26.40
76537;DHT22;65381;51.254;15.592;2023-05-28T11:13:47;33.60;26.40
76537;DHT22;65381;51.254;15.592;2023-05-28T11:16:17;33.60;26.10
76537;DHT22;65381;51.254;15.592;2023-05-28T11:19:05;33.90;26.10
76537;DHT22;65381;51.254;15.592;2023-05-28T11:21:52;34.20;26.10
76537;DHT22;65381;51.254;15.592;2023-05-28T11:24:21;34.50;26.00
76537;DHT22;65381;51.254;15.592;2023-05-28T11:26:51;34.70;25.90
76537;DHT22;65381;51.254;15.592;2023-05-28T11:29:21;34.70;26.00
76537;DHT22;65381;51.254;15.592;2023-05-28T11:31:49;35.10;25.90
76537;DHT22;65381;51.254;15.592;2023-05-28T11:34:19;35.70;25.80
76537;DHT22;65381;51.254;15.592;2023-05-28T11:36:48;36.00;25.60
76537;DHT22;65381;51.254;15.592;2023-05-28T11:39:16;35.70;25.50
76537;DHT22;65381;51.254;15.592;2023-05-28T11:41:43;34.70;25.70
76537;DHT22;65381;51.254;15.592;2023-05-28T11:44:19;33.90;26.30
76537;DHT22;65381;51.254;15.592;2023-05-28T11:46:55;33.70;26.40
76537;DHT22;65381;51.254;15.592;2023-05-28T11:49:23;33.70;26.30
76537;DHT22;65381;51.254;15.592;2023-05-28T11:51:52;33.10;26.40
76537;DHT22;65381;51.254;15.592;2023-05-28T11:54:21;32.40;26.60
76537;DHT22;65381;51.254;15.592;2023-05-28T11:56:52;31.90;26.90
76537;DHT22;65381;51.254;15.592;2023-05-28T11:59:21;32.00;26.90
76537;DHT22;65381;51.254;15.592;2023-05-28T12:01:54;32.40;26.80
76537;DHT22;65381;51.254;15.592;2023-05-28T12:04:35;32.60;26.70
76537;DHT22;65381;51.254;15.592;2023-05-28T12:07:03;32.80;26.70
76537;DHT22;65381;51.254;15.592;2023-05-28T12:09:32;32.80;26.70
76537;DHT22;65381;51.254;15.592;2023-05-28T12:12:09;32.60;26.70
76537;DHT22;65381;51.254;15.592;2023-05-28T12:14:39;32.00;26.50
76537;DHT22;65381;51.254;15.592;2023-05-28T12:17:08;30.90;27.00
76537;DHT22;65381;51.254;15.592;2023-05-28T12:19:36;30.20;27.40
76537;DHT22;65381;51.254;15.592;2023-05-28T12:22:13;30.00;27.60
76537;DHT22;65381;51.254;15.592;2023-05-28T12:24:52;29.40;27.70
76537;DHT22;65381;51.254;15.592;2023-05-28T12:27:22;28.70;28.00
76537;DHT22;65381;51.254;15.592;2023-05-28T12:29:50;28.50;28.20
76537;DHT22;65381;51.254;15.592;2023-05-28T12:32:18;29.00;28.10
76537;DHT22;65381;51.254;15.592;2023-05-28T12:34:47;29.70;27.80
76537;DHT22;65381;51.254;15.592;2023-05-28T12:37:15;30.10;27.70
76537;DHT22;65381;51.254;15.592;2023-05-28T12:39:43;29.70;27.60
76537;DHT22;65381;51.254;15.592;2023-05-28T12:42:11;29.30;27.70
76537;DHT22;65381;51.254;15.592;2023-05-28T12:44:39;29.00;27.90
76537;DHT22;65381;51.254;15.592;2023-05-28T12:47:07;28.70;28.10
76537;DHT22;65381;51.254;15.592;2023-05-28T12:49:35;28.10;28.30
76537;DHT22;65381;51.254;15.592;2023-05-28T12:52:03;27.70;28.40
76537;DHT22;65381;51.254;15.592;2023-05-28T12:54:33;27.50;28.60
76537;DHT22;65381;51.254;15.592;2023-05-28T12:57:01;27.40;28.60
76537;DHT22;65381;51.254;15.592;2023-05-28T12:59:31;27.10;28.70
76537;DHT22;65381;51.254;15.592;2023-05-28T13:02:00;27.10;28.80
76537;DHT22;65381;51.254;15.592;2023-05-28T13:04:28;27.00;28.80
76537;DHT22;65381;51.254;15.592;2023-05-28T13:06:56;26.50;28.70
76537;DHT22;65381;51.254;15.592;2023-05-28T13:09:24;26.10;28.80
76537;DHT22;65381;51.254;15.592;2023-05-28T13:11:54;25.80;28.90
76537;DHT22;65381;51.254;15.592;2023-05-28T13:14:22;25.60;28.90
76537;DHT22;65381;51.254;15.592;2023-05-28T13:16:50;25.30;29.10
76537;DHT22;65381;51.254;15.592;2023-05-28T13:19:18;25.20;29.30
76537;DHT22;65381;51.254;15.592;2023-05-28T13:21:46;25.20;29.10
76537;DHT22;65381;51.254;15.592;2023-05-28T13:24:14;25.00;29.20
76537;DHT22;65381;51.254;15.592;2023-05-28T13:26:42;24.80;29.10
76537;DHT22;65381;51.254;15.592;2023-05-28T13:29:10;24.30;29.20
76537;DHT22;65381;51.254;15.592;2023-05-28T13:31:37;23.90;29.30
76537;DHT22;65381;51.254;15.592;2023-05-28T13:34:05;23.40;29.40
76537;DHT22;65381;51.254;15.592;2023-05-28T13:36:33;23.00;29.50
76537;DHT22;65381;51.254;15.592;2023-05-28T13:39:02;22.80;29.70
76537;DHT22;65381;51.254;15.592;2023-05-28T13:41:31;22.60;29.70
76537;DHT22;65381;51.254;15.592;2023-05-28T13:44:01;22.30;29.80
76537;DHT22;65381;51.254;15.592;2023-05-28T13:46:29;22.20;30.00
76537;DHT22;65381;51.254;15.592;2023-05-28T13:48:57;22.30;30.10
76537;DHT22;65381;51.254;15.592;2023-05-28T13:51:25;22.30;30.10
76537;DHT22;65381;51.254;15.592;2023-05-28T13:53:53;22.20;30.10
76537;DHT22;65381;51.254;15.592;2023-05-28T13:56:21;22.20;30.10
76537;DHT22;65381;51.254;15.592;2023-05-28T13:58:49;22.20;30.10
76537;DHT22;65381;51.254;15.592;2023-05-28T14:01:17;22.20;30.10
76537;DHT22;65381;51.254;15.592;2023-05-28T14:03:45;22.00;30.20
76537;DHT22;65381;51.254;15.592;2023-05-28T14:06:14;22.00;30.90
76537;DHT22;65381;51.254;15.592;2023-05-28T14:08:42;21.80;30.90
76537;DHT22;65381;51.254;15.592;2023-05-28T14:11:11;21.70;31.00
76537;DHT22;65381;51.254;15.592;2023-05-28T14:13:39;21.70;31.00
76537;DHT22;65381;51.254;15.592;2023-05-28T14:16:07;21.60;31.10
76537;DHT22;65381;51.254;15.592;2023-05-28T14:18:35;21.50;31.00
76537;DHT22;65381;51.254;15.592;2023-05-28T14:21:03;21.50;31.20
76537;DHT22;65381;51.254;15.592;2023-05-28T14:23:31;21.50;31.20
76537;DHT22;65381;51.254;15.592;2023-05-28T14:25:59;21.50;31.20
76537;DHT22;65381;51.254;15.592;2023-05-28T14:28:27;21.60;31.20
76537;DHT22;65381;51.254;15.592;2023-05-28T14:30:55;21.50;31.20
76537;DHT22;65381;51.254;15.592;2023-05-28T14:33:24;21.50;31.20
76537;DHT22;65381;51.254;15.592;2023-05-28T14:35:57;21.50;31.30
76537;DHT22;65381;51.254;15.592;2023-05-28T14:38:42;21.50;31.40
76537;DHT22;65381;51.254;15.592;2023-05-28T14:41:10;21.50;31.40
76537;DHT22;65381;51.254;15.592;2023-05-28T14:43:38;21.40;31.40
76537;DHT22;65381;51.254;15.592;2023-05-28T14:46:06;21.40;31.70
76537;DHT22;65381;51.254;15.592;2023-05-28T14:48:34;21.30;31.90
76537;DHT22;65381;51.254;15.592;2023-05-28T14:51:02;21.20;32.30
76537;DHT22;65381;51.254;15.592;2023-05-28T14:53:31;21.10;32.40
76537;DHT22;65381;51.254;15.592;2023-05-28T14:55:58;21.00;32.40
76537;DHT22;65381;51.254;15.592;2023-05-28T14:58:26;21.10;32.30
76537;DHT22;65381;51.254;15.592;2023-05-28T15:00:55;21.10;32.30
76537;DHT22;65381;51.254;15.592;2023-05-28T15:03:23;21.10;32.50
76537;DHT22;65381;51.254;15.592;2023-05-28T15:05:52;21.10;32.60
76537;DHT22;65381;51.254;15.592;2023-05-28T15:08:20;21.10;32.60
76537;DHT22;65381;51.254;15.592;2023-05-28T15:10:50;21.10;32.60
76537;DHT22;65381;51.254;15.592;2023-05-28T15:13:19;21.10;32.60
76537;DHT22;65381;51.254;15.592;2023-05-28T15:15:47;21.10;32.60
76537;DHT22;65381;51.254;15.592;2023-05-28T15:18:15;21.10;32.70
76537;DHT22;65381;51.254;15.592;2023-05-28T15:20:43;21.10;32.80
76537;DHT22;65381;51.254;15.592;2023-05-28T15:23:12;21.00;32.90
76537;DHT22;65381;51.254;15.592;2023-05-28T15:25:40;21.00;33.00
76537;DHT22;65381;51.254;15.592;2023-05-28T15:28:17;21.00;32.90
76537;DHT22;65381;51.254;15.592;2023-05-28T15:30:47;21.00;33.00
76537;DHT22;65381;51.254;15.592;2023-05-28T15:33:15;21.00;33.00
76537;DHT22;65381;51.254;15.592;2023-05-28T15:35:43;21.10;33.00
76537;DHT22;65381;51.254;15.592;2023-05-28T15:38:12;21.10;33.30
76537;DHT22;65381;51.254;15.592;2023-05-28T15:40:40;21.10;33.20
76537;DHT22;65381;51.254;15.592;2023-05-28T15:43:10;20.90;33.40